Time;durP1;ratioP1;P1;durP2;ratioP2;P2;SDS_P1;SDS_P2;PMS_P1;PMS_P2;Temp;Humidity;BMP_temperature;BMP_pressure;BME280_temperature;BME280_humidity;BME280_pressure;Samples;Min_cycle;Max_cycle;Signal;HPM_P1;HPM_P2
2022/11/16 00:01:33;;;;;;;0.10;0.10;;;;;;;-2.20;79.78;99464.31;6175600;23;20021;-66
2022/11/16 00:04:02;;;;;;;0.10;0.10;;;;;;;-2.15;79.71;99461.03;6188919;23;20021;-66
2022/11/16 00:06:28;;;;;;;0.10;0.10;;;;;;;-2.09;79.62;99456.75;6186369;23;20048;-67
2022/11/16 00:11:42;;;;;;;0.10;0.10;;;;;;;-2.00;79.10;99461.72;6184503;23;20048;-66
2022/11/16 00:14:08;;;;;;;0.10;0.10;;;;;;;-2.01;78.95;99461.94;6177786;23;20161;-66
2022/11/16 00:16:34;;;;;;;0.10;0.10;;;;;;;-2.00;79.00;99456.38;6187604;23;20472;-66
2022/11/16 00:19:02;;;;;;;0.10;0.10;;;;;;;-2.05;78.76;99452.63;6187205;23;20032;-66
2022/11/16 00:21:29;;;;;;;0.20;0.20;;;;;;;-2.12;78.57;99447.25;6177051;23;20028;-66
2022/11/16 00:23:55;;;;;;;0.10;0.10;;;;;;;-2.14;78.57;99460.03;6179793;23;20032;-66
2022/11/16 00:26:22;;;;;;;0.10;0.10;;;;;;;-2.21;78.68;99456.50;6188040;23;20048;-66
2022/11/16 00:28:51;;;;;;;0.10;0.10;;;;;;;-2.27;78.74;99460.78;6181258;23;20392;-66
2022/11/16 00:31:17;;;;;;;0.20;0.20;;;;;;;-2.32;78.40;99452.53;6163963;23;20017;-66
2022/11/16 00:33:43;;;;;;;0.17;0.17;;;;;;;-2.39;78.65;99454.34;6162483;23;20029;-65
2022/11/16 00:36:11;;;;;;;0.10;0.10;;;;;;;-2.40;78.96;99452.69;6173748;23;20021;-66
2022/11/16 00:38:37;;;;;;;;;;;;;;;-2.37;79.00;99449.59;6190260;23;20488;-66
2022/11/16 00:41:04;;;;;;;0.10;0.10;;;;;;;-2.31;78.72;99459.53;6175359;23;19927;-66
2022/11/16 00:43:30;;;;;;;0.10;0.10;;;;;;;-2.34;78.42;99465.28;6128305;23;20036;-66
2022/11/16 00:45:58;;;;;;;0.10;0.10;;;;;;;-2.36;78.50;99460.13;6150002;23;20024;-66
2022/11/16 00:48:24;;;;;;;0.10;0.10;;;;;;;-2.34;78.53;99465.28;6189549;23;20025;-66
2022/11/16 00:50:50;;;;;;;0.10;0.10;;;;;;;-2.31;78.60;99457.69;6148942;23;20504;-66
2022/11/16 00:53:18;;;;;;;0.10;0.10;;;;;;;-2.28;78.38;99468.00;6183580;23;20028;-66
2022/11/16 00:55:45;;;;;;;0.20;0.10;;;;;;;-2.28;78.51;99465.31;6152179;23;20051;-66
2022/11/16 00:58:14;;;;;;;0.10;0.10;;;;;;;-2.20;78.35;99467.00;6127994;23;20033;-66
2022/11/16 01:00:42;;;;;;;0.10;0.10;;;;;;;-2.17;78.37;99457.75;6177898;23;20364;-65
2022/11/16 01:03:10;;;;;;;0.20;0.20;;;;;;;-2.16;78.17;99459.41;6178621;23;20032;-66
2022/11/16 01:05:36;;;;;;;0.20;0.20;;;;;;;-2.10;77.92;99458.63;6126389;23;20017;-66
2022/11/16 01:08:02;;;;;;;0.10;0.10;;;;;;;-2.11;77.69;99458.81;6126860;23;20025;-66
2022/11/16 01:10:29;;;;;;;0.20;0.20;;;;;;;-2.17;77.76;99458.59;6127976;23;20017;-67
2022/11/16 01:12:56;;;;;;;0.10;0.10;;;;;;;-2.20;77.97;99455.47;6187290;23;20359;-66
2022/11/16 01:15:24;;;;;;;0.10;0.10;;;;;;;-2.26;77.99;99459.78;6150172;23;20309;-66
2022/11/16 01:17:52;;;;;;;0.17;0.17;;;;;;;-2.23;77.99;99462.03;6161942;23;20032;-66
2022/11/16 01:20:23;;;;;;;0.10;0.10;;;;;;;-2.27;77.92;99455.44;6151008;23;20028;-66
2022/11/16 01:22:52;;;;;;;0.20;0.20;;;;;;;-2.28;77.85;99459.97;6153822;23;20052;-66
2022/11/16 01:25:18;;;;;;;0.10;0.10;;;;;;;-2.28;77.96;99457.28;6187742;23;20429;-66
2022/11/16 01:27:44;;;;;;;0.10;0.10;;;;;;;-2.35;77.57;99456.44;6187577;23;20372;-65
2022/11/16 01:30:17;;;;;;;0.10;0.10;;;;;;;-2.47;77.65;99456.19;6161320;23;20044;-66
2022/11/16 01:32:53;;;;;;;0.25;0.25;;;;;;;-2.52;77.92;99458.59;6129557;23;20017;-66
2022/11/16 01:35:20;;;;;;;0.10;0.10;;;;;;;-2.55;78.11;99455.50;6165159;23;20112;-66
2022/11/16 01:37:47;;;;;;;0.15;0.15;;;;;;;-2.56;78.12;99457.34;6161166;23;20096;-65
2022/11/16 01:40:14;;;;;;;0.10;0.10;;;;;;;-2.59;77.77;99458.56;6163200;23;20044;-66
2022/11/16 01:42:42;;;;;;;0.10;0.10;;;;;;;-2.63;78.18;99456.50;6150236;23;20032;-65
2022/11/16 01:45:24;;;;;;;0.10;0.10;;;;;;;-2.66;78.08;99460.38;6188625;23;20162;-65
2022/11/16 01:47:53;;;;;;;0.13;0.13;;;;;;;-2.60;78.14;99456.09;6128218;23;20025;-65
2022/11/16 01:50:24;;;;;;;0.10;0.10;;;;;;;-2.60;77.83;99459.59;6161791;23;20365;-65
2022/11/16 01:52:56;;;;;;;0.28;0.28;;;;;;;-2.64;77.79;99463.69;6161324;23;20051;-65
2022/11/16 01:55:26;;;;;;;0.10;0.10;;;;;;;-2.58;78.00;99464.75;6151977;23;20044;-65
2022/11/16 01:58:06;;;;;;;0.20;0.20;;;;;;;-2.53;77.75;99464.16;6154195;23;20052;-65
2022/11/16 02:00:34;;;;;;;0.10;0.10;;;;;;;-2.43;77.63;99470.81;6160626;23;20025;-65
2022/11/16 02:03:20;;;;;;;0.10;0.10;;;;;;;-2.48;77.38;99464.38;6153197;23;20064;-66
2022/11/16 02:06:07;;;;;;;0.10;0.10;;;;;;;-2.55;77.30;99468.91;6162001;23;20021;-65
2022/11/16 02:11:52;;;;;;;0.20;0.10;;;;;;;-2.73;77.48;99460.34;6151257;23;20028;-66
2022/11/16 02:14:31;;;;;;;0.10;0.10;;;;;;;-2.72;77.69;99469.19;6161305;23;20049;-65
2022/11/16 02:17:06;;;;;;;0.10;0.10;;;;;;;-2.74;77.61;99457.84;6161177;23;20024;-65
2022/11/16 02:20:16;;;;;;;0.13;0.13;;;;;;;-2.71;77.81;99476.22;6163209;23;20381;-65
2022/11/16 02:22:59;;;;;;;0.10;0.10;;;;;;;-2.75;77.48;99473.09;6176137;23;20363;-65
2022/11/16 02:25:33;;;;;;;0.10;0.10;;;;;;;-2.83;77.75;99483.94;6188981;23;20045;-65
2022/11/16 02:28:26;;;;;;;0.10;0.10;;;;;;;-2.82;77.70;99484.78;6162500;23;20486;-65
2022/11/16 02:30:56;;;;;;;0.10;0.10;;;;;;;-2.84;77.58;99495.66;6185180;23;20021;-65
2022/11/16 02:33:30;;;;;;;0.10;0.10;;;;;;;-2.89;77.66;99488.25;6127624;23;20051;-67
2022/11/16 02:35:59;;;;;;;0.10;0.10;;;;;;;-2.86;77.46;99492.34;6185767;23;20024;-65
2022/11/16 02:38:28;;;;;;;0.10;0.10;;;;;;;-2.85;77.36;99494.00;6185896;23;20321;-65
2022/11/16 02:41:00;;;;;;;0.10;0.10;;;;;;;-2.82;76.97;99485.59;6161544;23;20021;-65
2022/11/16 02:43:34;;;;;;;0.10;0.10;;;;;;;-2.80;77.00;99493.44;6159747;23;20487;-66
2022/11/16 02:46:07;;;;;;;0.10;0.10;;;;;;;-2.78;76.91;99491.38;6149168;23;20407;-66
2022/11/16 02:48:37;;;;;;;0.10;0.10;;;;;;;-2.76;76.68;99487.50;6158095;23;20461;-65
2022/11/16 02:51:05;;;;;;;0.10;0.10;;;;;;;-2.71;76.65;99485.06;6177617;23;20075;-65
2022/11/16 02:53:35;;;;;;;0.10;0.10;;;;;;;-2.72;76.42;99485.25;6158087;23;20075;-65
2022/11/16 02:56:02;;;;;;;0.20;0.20;;;;;;;-2.71;76.19;99489.59;6149962;23;20330;-65
2022/11/16 02:58:28;;;;;;;0.13;0.08;;;;;;;-2.69;76.03;99490.22;6158465;23;20021;-66
2022/11/16 03:00:59;;;;;;;0.10;0.10;;;;;;;-2.72;76.09;99498.66;6126811;23;20025;-65
2022/11/16 03:03:34;;;;;;;0.10;0.10;;;;;;;-2.73;75.93;99495.13;6152461;23;20365;-65
2022/11/16 03:06:04;;;;;;;0.10;0.10;;;;;;;-2.71;76.00;99509.13;6186258;23;20024;-65
2022/11/16 03:08:35;;;;;;;0.10;0.10;;;;;;;-2.70;75.83;99509.97;6178464;23;20029;-66
2022/11/16 03:13:55;;;;;;;0.10;0.10;;;;;;;-2.78;75.70;99516.31;6151412;23;20020;-66
2022/11/16 03:16:25;;;;;;;0.10;0.10;;;;;;;-2.78;75.81;99520.81;6162689;23;20468;-65
2022/11/16 03:18:54;;;;;;;0.10;0.10;;;;;;;-2.78;76.03;99520.81;6154199;23;20055;-66
2022/11/16 03:21:28;;;;;;;0.10;0.10;;;;;;;-2.80;76.02;99522.88;6124064;23;20025;-65
2022/11/16 03:23:55;;;;;;;0.10;0.10;;;;;;;-2.83;75.76;99524.06;6176506;23;20017;-65
2022/11/16 03:26:25;;;;;;;0.10;0.10;;;;;;;-2.88;75.71;99521.16;6177685;23;20025;-65
2022/11/16 03:28:59;;;;;;;0.10;0.10;;;;;;;-2.96;75.59;99521.31;6176839;23;20368;-66
2022/11/16 03:31:28;;;;;;;0.10;0.10;;;;;;;-3.07;75.71;99504.75;6124155;23;20024;-65
2022/11/16 03:34:00;;;;;;;0.10;0.10;;;;;;;-2.93;75.66;99521.72;6138650;23;20357;-65
2022/11/16 03:36:30;;;;;;;0.20;0.20;;;;;;;-2.95;75.55;99529.13;6175038;23;20025;-65
2022/11/16 03:39:01;;;;;;;0.43;0.20;;;;;;;-2.91;75.61;99526.91;6151205;23;20025;-66
2022/11/16 03:41:30;;;;;;;0.10;0.10;;;;;;;-2.90;75.41;99529.38;6158095;23;20404;-65
2022/11/16 03:43:58;;;;;;;0.10;0.10;;;;;;;-2.99;75.36;99525.19;6181894;23;20052;-66
2022/11/16 03:46:24;;;;;;;0.10;0.10;;;;;;;-2.96;75.19;99532.81;6150161;23;20087;-66
2022/11/16 03:48:57;;;;;;;0.10;0.10;;;;;;;-3.00;75.05;99531.56;6150983;23;20569;-65
2022/11/16 03:51:26;;;;;;;0.10;0.10;;;;;;;-3.06;74.99;99538.50;6149618;23;20060;-65
2022/11/16 03:53:53;;;;;;;0.10;0.10;;;;;;;-3.11;75.09;99535.59;6161373;23;20044;-66
2022/11/16 03:56:20;;;;;;;0.10;0.10;;;;;;;-3.10;75.25;99541.75;6126478;23;20017;-66
2022/11/16 03:58:46;;;;;;;0.10;0.10;;;;;;;-3.15;74.93;99535.13;6128714;23;20025;-66
2022/11/16 04:01:12;;;;;;;0.10;0.10;;;;;;;-3.21;75.14;99533.22;6184877;23;20027;-65
2022/11/16 04:03:39;;;;;;;0.10;0.10;;;;;;;-3.25;75.22;99539.16;6123549;23;20021;-65
2022/11/16 04:25:35;;;;;;;0.10;0.10;;;;;;;-3.66;75.40;99544.06;6151040;23;20020;-65
2022/11/16 04:28:15;;;;;;;0.13;0.13;;;;;;;-3.74;75.82;99553.00;6189874;23;20025;-65
2022/11/16 04:39:08;;;;;;;0.20;0.20;;;;;;;-3.75;76.28;99553.19;6153608;23;20025;-65
2022/11/16 04:44:20;;;;;;;0.10;0.10;;;;;;;-3.85;76.80;99557.00;6173820;23;20041;-65
2022/11/16 04:49:32;;;;;;;0.10;0.10;;;;;;;-3.74;76.65;99568.22;6143344;23;20543;-66
2022/11/16 04:51:59;;;;;;;0.10;0.10;;;;;;;-3.76;76.58;99568.41;6146866;23;20017;-65
2022/11/16 04:54:27;;;;;;;0.20;0.20;;;;;;;-3.74;76.88;99569.03;6121482;23;20091;-66
2022/11/16 04:56:53;;;;;;;0.50;0.17;;;;;;;-3.65;76.63;99569.75;6145152;23;20025;-65
2022/11/16 04:59:20;;;;;;;0.10;0.10;;;;;;;-3.56;76.72;99573.16;6146929;23;20043;-65
2022/11/16 05:04:31;;;;;;;0.10;0.10;;;;;;;-3.54;76.23;99581.00;6171219;23;20040;-66
2022/11/16 05:06:57;;;;;;;0.10;0.10;;;;;;;-3.50;76.27;99582.28;6179070;23;20294;-65
2022/11/16 05:09:24;;;;;;;0.10;0.10;;;;;;;-3.53;75.71;99580.78;6145225;23;20024;-65
2022/11/16 05:11:52;;;;;;;0.13;0.13;;;;;;;-3.53;75.94;99583.47;6132051;23;20021;-66
2022/11/16 05:14:19;;;;;;;0.10;0.10;;;;;;;-3.43;76.12;99585.88;6155338;23;20017;-65
2022/11/16 05:16:45;;;;;;;0.10;0.10;;;;;;;-3.38;75.50;99585.28;6156266;23;20120;-65
2022/11/16 05:21:58;;;;;;;0.10;0.10;;;;;;;-3.32;75.00;99595.25;6145565;23;20096;-66
2022/11/16 05:24:34;;;;;;;0.17;0.17;;;;;;;-3.32;74.96;99587.22;6118413;23;20044;-66
2022/11/16 05:27:05;;;;;;;0.10;0.10;;;;;;;-3.22;74.98;99587.72;6154127;23;20035;-65
2022/11/16 05:29:31;;;;;;;0.10;0.10;;;;;;;-3.18;74.68;99596.19;6144006;23;20025;-65
2022/11/16 05:31:58;;;;;;;0.15;0.15;;;;;;;-3.21;74.32;99591.25;6157319;23;20029;-65
2022/11/16 05:34:26;;;;;;;0.17;0.17;;;;;;;-3.25;74.12;99596.13;6116585;23;20035;-65
2022/11/16 05:36:52;;;;;;;0.10;0.10;;;;;;;-3.38;74.15;99591.47;6148443;23;20025;-65
2022/11/16 05:39:18;;;;;;;0.10;0.10;;;;;;;-3.51;74.61;99608.19;6148807;23;20087;-66
2022/11/16 05:41:46;;;;;;;0.10;0.10;;;;;;;-3.68;74.64;99594.19;6147948;23;20103;-66
2022/11/16 05:44:15;;;;;;;0.20;0.20;;;;;;;-3.92;74.75;99590.81;6169865;23;20260;-66
2022/11/16 05:46:42;;;;;;;0.20;0.20;;;;;;;-4.03;75.18;99591.28;6152241;23;20104;-66
2022/11/16 05:49:09;;;;;;;0.10;0.10;;;;;;;-4.23;75.64;99586.47;6144919;23;20047;-66
2022/11/16 05:51:36;;;;;;;0.20;0.10;;;;;;;-4.32;75.77;99604.41;6144949;23;20360;-65
2022/11/16 05:54:03;;;;;;;0.17;0.17;;;;;;;-4.37;76.31;99605.97;6182657;23;20481;-65
2022/11/16 05:56:32;;;;;;;0.10;0.10;;;;;;;-4.37;76.38;99611.31;6154752;23;20511;-66
2022/11/16 05:58:58;;;;;;;0.20;0.20;;;;;;;-4.41;76.42;99594.84;6157845;23;20100;-65
2022/11/16 06:01:26;;;;;;;0.43;0.30;;;;;;;-4.47;76.35;99592.88;6146533;23;20017;-65
2022/11/16 06:03:52;;;;;;;0.28;0.28;;;;;;;-4.34;76.22;99611.78;6157004;23;20148;-65
2022/11/16 06:06:19;;;;;;;0.20;0.20;;;;;;;-4.36;76.10;99607.66;6171949;23;20021;-65
2022/11/16 06:08:46;;;;;;;0.10;0.10;;;;;;;-4.30;75.82;99606.91;6131533;23;20021;-66
2022/11/16 06:11:16;;;;;;;0.17;0.17;;;;;;;-4.26;75.86;99608.19;6146157;23;20021;-65
2022/11/16 06:13:43;;;;;;;0.20;0.20;;;;;;;-4.24;75.74;99605.38;6122622;23;20487;-65
2022/11/16 06:16:11;;;;;;;0.20;0.20;;;;;;;-4.24;75.50;99616.84;6121386;23;20107;-66
2022/11/16 06:18:43;;;;;;;0.30;0.30;;;;;;;-4.16;75.41;99611.44;6174487;23;20021;-65
2022/11/16 06:21:10;;;;;;;0.35;0.20;;;;;;;-4.01;74.91;99613.28;6122280;23;20427;-66
2022/11/16 06:23:37;;;;;;;0.20;0.20;;;;;;;-3.96;74.79;99613.56;6122861;23;20357;-65
2022/11/16 06:26:04;;;;;;;0.20;0.20;;;;;;;-3.93;74.29;99612.38;6147882;23;20409;-66
2022/11/16 06:28:31;;;;;;;0.10;0.10;;;;;;;-3.87;74.04;99623.16;6156833;23;20021;-66
2022/11/16 06:30:57;;;;;;;0.13;0.13;;;;;;;-3.87;73.63;99608.94;6147231;23;20384;-66
2022/11/16 06:33:25;;;;;;;0.20;0.20;;;;;;;-3.71;73.94;99623.97;6155958;23;20025;-65
2022/11/16 06:35:53;;;;;;;0.20;0.20;;;;;;;-3.67;72.82;99617.25;6120530;23;20095;-65
2022/11/16 06:38:22;;;;;;;0.10;0.10;;;;;;;-3.59;72.63;99619.81;6144618;23;20027;-66
2022/11/16 06:40:52;;;;;;;0.20;0.20;;;;;;;-3.50;72.40;99617.88;6144393;23;20195;-65
2022/11/16 06:43:20;;;;;;;0.10;0.10;;;;;;;-3.46;71.97;99626.31;6143736;23;20020;-70
2022/11/16 06:45:48;;;;;;;0.20;0.20;;;;;;;-3.42;71.76;99620.44;6145561;23;20039;-66
2022/11/16 06:48:14;;;;;;;0.37;0.20;;;;;;;-3.35;71.54;99625.84;6171863;23;20071;-65
2022/11/16 06:50:40;;;;;;;0.10;0.10;;;;;;;-3.36;71.08;99624.19;6183399;23;20455;-66
2022/11/16 06:53:08;;;;;;;0.10;0.10;;;;;;;-3.35;71.27;99615.16;6121180;23;20017;-66
2022/11/16 06:55:34;;;;;;;0.17;0.17;;;;;;;-3.36;71.32;99616.19;6121676;23;20087;-66
2022/11/16 06:58:01;;;;;;;0.10;0.10;;;;;;;-3.39;71.37;99613.88;6156419;23;20021;-66
2022/11/16 07:00:28;;;;;;;0.20;0.20;;;;;;;-3.35;71.29;99607.13;6145705;23;20031;-66
2022/11/16 07:02:55;;;;;;;0.20;0.20;;;;;;;-3.19;71.22;99618.63;6173507;23;20040;-65
2022/11/16 07:05:21;;;;;;;0.28;0.28;;;;;;;-3.13;70.84;99623.19;6156178;23;20071;-66
2022/11/16 07:07:52;;;;;;;0.10;0.10;;;;;;;-3.12;70.80;99622.22;6171442;23;20487;-66
2022/11/16 07:10:20;;;;;;;0.20;0.20;;;;;;;-3.13;70.51;99620.53;6156724;23;20029;-65
2022/11/16 07:12:46;;;;;;;0.20;0.20;;;;;;;-3.19;69.85;99623.97;6120405;23;20354;-65
2022/11/16 07:15:14;;;;;;;0.20;0.20;;;;;;;-3.16;69.89;99618.22;6172134;23;20021;-65
2022/11/16 07:17:43;;;;;;;0.45;0.20;;;;;;;-3.13;70.20;99626.72;6147167;23;20025;-65
2022/11/16 07:20:10;;;;;;;0.20;0.20;;;;;;;-3.09;69.79;99621.81;6183084;23;20512;-65
2022/11/16 07:22:37;;;;;;;0.50;0.30;;;;;;;-3.06;69.73;99621.44;6154388;23;20017;-66
2022/11/16 07:25:04;;;;;;;0.20;0.20;;;;;;;-3.01;69.39;99621.69;6122808;23;20108;-66
2022/11/16 07:27:31;;;;;;;0.10;0.10;;;;;;;-2.98;69.21;99628.53;6172494;23;20017;-65
2022/11/16 07:29:59;;;;;;;0.20;0.20;;;;;;;-2.97;69.10;99627.50;6154019;23;20028;-66
2022/11/16 07:32:56;;;;;;;0.20;0.20;;;;;;;-2.93;68.95;99627.97;6167231;23;20025;-66
2022/11/16 07:35:33;;;;;;;0.10;0.10;;;;;;;-2.90;68.66;99623.03;6145446;23;20025;-66
2022/11/16 07:38:00;;;;;;;0.55;0.20;;;;;;;-2.89;68.65;99623.88;6157032;23;20052;-65
2022/11/16 07:40:26;;;;;;;0.20;0.20;;;;;;;-2.88;68.70;99629.03;6155132;23;20028;-66
2022/11/16 07:42:56;;;;;;;0.20;0.20;;;;;;;-2.86;68.68;99623.47;6144923;23;20021;-66
2022/11/16 07:46:02;;;;;;;0.20;0.20;;;;;;;-2.81;68.35;99626.44;6155487;23;20029;-65
2022/11/16 07:48:28;;;;;;;0.20;0.20;;;;;;;-2.86;68.46;99626.16;6154535;23;20031;-65
2022/11/16 07:51:15;;;;;;;0.20;0.20;;;;;;;-2.84;68.63;99616.09;6172658;23;20047;-66
2022/11/16 07:53:47;;;;;;;0.20;0.20;;;;;;;-2.80;68.83;99619.22;6155779;23;20028;-65
2022/11/16 07:56:13;;;;;;;0.10;0.10;;;;;;;-2.79;69.23;99620.88;6146904;23;20358;-65
2022/11/16 07:58:42;;;;;;;0.20;0.20;;;;;;;-2.74;69.27;99623.78;6156710;23;20140;-65
2022/11/16 08:01:10;;;;;;;0.52;0.20;;;;;;;-2.73;69.42;99614.78;6180080;23;20029;-66
2022/11/16 08:03:37;;;;;;;;;;;;;;;-2.64;69.54;99610.91;6155802;23;20091;-65
2022/11/16 08:06:07;;;;;;;0.13;0.13;;;;;;;-2.52;69.17;99618.44;6147352;23;19920;-65
2022/11/16 08:08:34;;;;;;;0.22;0.22;;;;;;;-2.28;69.04;99612.63;6146567;23;20031;-65
2022/11/16 08:11:01;;;;;;;0.30;0.30;;;;;;;-1.02;67.68;99609.94;6154697;23;20021;-66
2022/11/16 08:13:30;;;;;;;0.30;0.30;;;;;;;0.14;63.51;99615.06;6146592;23;20016;-66
2022/11/16 08:16:01;;;;;;;0.30;0.30;;;;;;;1.14;61.96;99609.47;6157023;23;20303;-66
2022/11/16 08:18:27;;;;;;;0.35;0.32;;;;;;;1.90;61.09;99620.28;6122429;23;20025;-66
2022/11/16 08:20:53;;;;;;;0.30;0.30;;;;;;;2.32;60.42;99619.63;6173368;23;20040;-66
2022/11/16 08:23:21;;;;;;;0.30;0.30;;;;;;;2.58;60.83;99612.28;6157620;23;20112;-67
2022/11/16 08:25:47;;;;;;;0.30;0.30;;;;;;;2.79;62.55;99615.56;6182647;23;20052;-66
2022/11/16 08:28:13;;;;;;;0.30;0.30;;;;;;;3.17;64.05;99610.88;6181277;23;20040;-67
2022/11/16 08:30:40;;;;;;;0.30;0.30;;;;;;;3.16;62.90;99617.34;6155882;23;20108;-66
2022/11/16 08:33:08;;;;;;;0.25;0.25;;;;;;;3.33;62.84;99604.81;6097175;23;20137;-66
2022/11/16 08:35:35;;;;;;;;;;;;;;;3.86;61.41;99615.81;6156410;23;20095;-67
2022/11/16 08:38:01;;;;;;;0.25;0.25;;;;;;;4.28;58.92;99619.44;6146955;23;20433;-66
2022/11/16 08:40:28;;;;;;;0.30;0.30;;;;;;;4.49;57.66;99618.00;6159810;23;20367;-66
2022/11/16 08:42:55;;;;;;;0.13;0.13;;;;;;;4.63;56.29;99613.94;6157429;23;20079;-66
2022/11/16 08:45:22;;;;;;;0.20;0.20;;;;;;;3.52;57.29;99612.88;6121740;23;20067;-66
2022/11/16 08:47:48;;;;;;;0.30;0.30;;;;;;;3.26;57.08;99617.63;6147181;23;20367;-66
2022/11/16 08:50:16;;;;;;;0.88;0.32;;;;;;;4.09;56.07;99616.88;6173431;23;20032;-66
2022/11/16 08:52:43;;;;;;;0.30;0.30;;;;;;;4.61;51.60;99612.56;6182793;23;20072;-66
2022/11/16 08:55:12;;;;;;;0.30;0.30;;;;;;;4.71;51.34;99620.88;6134536;23;20404;-66
2022/11/16 08:57:39;;;;;;;0.30;0.30;;;;;;;4.60;52.38;99613.59;6123497;23;20063;-66
2022/11/16 09:00:10;;;;;;;0.30;0.30;;;;;;;5.32;50.17;99614.97;6173902;23;20447;-66
2022/11/16 09:02:36;;;;;;;0.30;0.30;;;;;;;5.86;47.65;99623.69;6183301;23;20056;-66
2022/11/16 09:05:02;;;;;;;0.30;0.30;;;;;;;5.18;47.61;99622.59;6148066;23;20049;-66
2022/11/16 09:07:31;;;;;;;0.40;0.40;;;;;;;4.76;48.12;99631.84;6175281;23;20021;-66
2022/11/16 09:09:57;;;;;;;0.30;0.30;;;;;;;4.51;47.33;99623.97;6185101;23;20017;-66
2022/11/16 09:12:24;;;;;;;0.20;0.20;;;;;;;3.81;49.01;99626.50;6147344;23;20391;-66
2022/11/16 09:14:50;;;;;;;0.20;0.20;;;;;;;3.23;51.33;99628.88;6185324;23;20558;-66
2022/11/16 09:17:16;;;;;;;0.50;0.50;;;;;;;3.73;51.02;99630.38;6175541;23;20055;-66
2022/11/16 09:19:42;;;;;;;0.40;0.40;;;;;;;5.16;49.05;99624.72;6174304;23;20463;-66
2022/11/16 09:22:08;;;;;;;0.13;0.13;;;;;;;5.73;45.48;99617.53;6172549;23;20104;-66
2022/11/16 09:24:35;;;;;;;0.50;0.50;;;;;;;4.86;46.30;99617.66;6183688;23;20028;-66
2022/11/16 09:27:01;;;;;;;0.50;0.50;;;;;;;5.41;44.69;99614.56;6185460;23;20061;-66
2022/11/16 09:29:27;;;;;;;0.52;0.52;;;;;;;6.37;42.26;99619.03;6147212;23;20025;-66
2022/11/16 09:31:54;;;;;;;0.60;0.60;;;;;;;6.91;40.98;99620.22;6170655;23;20025;-66
2022/11/16 09:34:20;;;;;;;0.60;0.60;;;;;;;7.65;39.82;99619.84;6146493;23;20155;-66
2022/11/16 09:36:46;;;;;;;0.60;0.60;;;;;;;8.33;38.04;99612.94;6147881;23;20029;-66
2022/11/16 09:39:12;;;;;;;0.20;0.20;;;;;;;8.41;37.44;99614.31;6156177;23;20116;-66
2022/11/16 09:41:54;;;;;;;0.60;0.60;;;;;;;6.76;39.07;99611.91;6172285;23;20032;-66
2022/11/16 09:44:39;;;;;;;0.20;0.20;;;;;;;5.84;41.25;99614.97;6172620;23;20464;-66
2022/11/16 09:47:13;;;;;;;0.70;0.70;;;;;;;5.19;42.26;99618.81;6182244;23;20028;-66
2022/11/16 09:49:45;;;;;;;0.30;0.30;;;;;;;6.11;40.59;99617.84;6183407;23;20028;-66
2022/11/16 09:52:19;;;;;;;0.20;0.20;;;;;;;5.49;41.32;99614.16;6147124;23;20024;-66
2022/11/16 09:54:47;;;;;;;0.20;0.20;;;;;;;5.07;42.04;99618.88;6121108;23;20539;-66
2022/11/16 09:57:20;;;;;;;0.52;0.52;;;;;;;5.16;41.69;99619.31;6179483;23;20108;-66
2022/11/16 09:59:50;;;;;;;0.20;0.20;;;;;;;5.46;41.11;99614.66;6181408;23;20108;-66
2022/11/16 10:02:22;;;;;;;0.22;0.22;;;;;;;6.06;40.37;99620.50;6172887;23;20021;-66
2022/11/16 10:04:54;;;;;;;0.20;0.20;;;;;;;5.38;41.07;99618.59;6154754;23;20025;-66
2022/11/16 10:07:25;;;;;;;0.70;0.70;;;;;;;4.87;42.43;99613.88;6144810;23;20478;-66
2022/11/16 10:09:51;;;;;;;0.70;0.70;;;;;;;6.36;40.54;99619.28;6143909;23;20044;-66
2022/11/16 10:12:24;;;;;;;0.20;0.20;;;;;;;6.80;38.88;99613.03;6178525;23;20399;-66
2022/11/16 10:15:06;;;;;;;0.20;0.20;;;;;;;4.97;41.15;99613.25;6182055;23;20334;-66
2022/11/16 10:17:46;;;;;;;0.10;0.10;;;;;;;3.24;44.76;99615.13;6171492;23;20031;-66
2022/11/16 10:20:32;;;;;;;0.43;0.20;;;;;;;2.03;46.93;99623.91;6180790;23;20103;-66
2022/11/16 10:23:08;;;;;;;0.10;0.10;;;;;;;0.99;48.88;99621.38;6172463;23;20032;-65
2022/11/16 10:25:40;;;;;;;0.10;0.10;;;;;;;0.30;50.66;99615.66;6171529;23;20407;-66
2022/11/16 10:28:28;;;;;;;0.10;0.10;;;;;;;-0.09;51.71;99623.59;6183137;23;20021;-65
2022/11/16 10:31:02;;;;;;;0.10;0.10;;;;;;;-0.35;52.48;99617.22;6153132;23;20024;-65
2022/11/16 10:33:34;;;;;;;0.10;0.10;;;;;;;-0.44;52.88;99618.47;6155785;23;20025;-65
2022/11/16 10:36:03;;;;;;;0.10;0.10;;;;;;;-0.63;53.36;99630.84;6181963;23;20048;-66
2022/11/16 10:38:30;;;;;;;0.20;0.20;;;;;;;-0.63;53.66;99630.84;6172764;23;20032;-65
2022/11/16 10:41:02;;;;;;;0.10;0.10;;;;;;;-0.35;53.56;99621.75;6181821;23;20298;-65
2022/11/16 10:43:31;;;;;;;0.20;0.20;;;;;;;-0.10;53.03;99624.63;6173610;23;20025;-65
2022/11/16 10:46:04;;;;;;;0.50;0.50;;;;;;;1.78;50.68;99622.03;6157356;23;20021;-65
2022/11/16 10:48:36;;;;;;;0.10;0.10;;;;;;;2.82;47.35;99628.63;6184517;23;20036;-66
2022/11/16 10:51:03;;;;;;;0.10;0.10;;;;;;;2.37;47.78;99632.47;6183978;23;20028;-66
2022/11/16 10:53:32;;;;;;;0.10;0.10;;;;;;;1.72;48.58;99631.03;6182440;23;20025;-65
2022/11/16 10:56:19;;;;;;;0.10;0.10;;;;;;;1.12;49.77;99628.53;6155873;23;20028;-65
2022/11/16 10:58:53;;;;;;;0.10;0.10;;;;;;;0.78;50.52;99632.44;6182445;23;20127;-66
2022/11/16 11:01:35;;;;;;;0.10;0.10;;;;;;;0.44;51.54;99626.38;6119840;23;20025;-65
2022/11/16 11:04:17;;;;;;;0.10;0.10;;;;;;;0.16;52.55;99633.69;6145753;23;20134;-66
2022/11/16 11:06:44;;;;;;;0.10;0.10;;;;;;;-0.02;52.99;99629.81;6155821;23;20107;-66
2022/11/16 11:09:19;;;;;;;0.10;0.10;;;;;;;-0.10;53.51;99632.69;6174376;23;20028;-65
2022/11/16 11:14:57;;;;;;;0.10;0.10;;;;;;;-0.43;54.52;99639.75;6173825;23;20028;-65
2022/11/16 11:17:23;;;;;;;0.10;0.10;;;;;;;-0.52;54.65;99635.59;6174211;23;20468;-66
2022/11/16 11:19:57;;;;;;;0.20;0.20;;;;;;;-0.53;54.90;99633.97;6173081;23;20046;-66
2022/11/16 11:22:23;;;;;;;0.10;0.10;;;;;;;-0.64;54.92;99635.41;6153352;23;20076;-65
2022/11/16 11:24:49;;;;;;;1.10;0.10;;;;;;;-0.73;55.24;99631.25;6179397;23;20044;-66
2022/11/16 11:27:22;;;;;;;0.10;0.10;;;;;;;-0.77;55.14;99628.16;6170279;23;20387;-65
2022/11/16 11:29:53;;;;;;;0.10;0.10;;;;;;;-0.79;55.00;99635.56;6180618;23;20528;-65
2022/11/16 11:32:20;;;;;;;0.10;0.10;;;;;;;-0.86;55.22;99640.97;6172700;23;20044;-65
2022/11/16 11:34:49;;;;;;;0.10;0.10;;;;;;;-0.77;55.14;99633.53;6180381;23;20051;-66
2022/11/16 11:37:18;;;;;;;0.10;0.10;;;;;;;-0.78;55.02;99637.25;6178962;23;20406;-66
2022/11/16 11:39:44;;;;;;;0.10;0.10;;;;;;;-0.78;54.91;99637.25;6180896;23;20040;-65
2022/11/16 11:42:21;;;;;;;0.10;0.10;;;;;;;-0.81;54.95;99636.81;6180971;23;20091;-66
2022/11/16 11:44:56;;;;;;;0.10;0.10;;;;;;;-0.73;54.44;99631.25;6182302;23;20101;-66
2022/11/16 11:47:45;;;;;;;0.20;0.20;;;;;;;-0.65;54.51;99643.66;6183247;23;20060;-65
2022/11/16 11:50:15;;;;;;;0.10;0.10;;;;;;;-0.53;54.11;99646.56;6184130;23;20025;-66
2022/11/16 11:52:50;;;;;;;0.10;0.10;;;;;;;-0.56;53.66;99637.06;6155984;23;20436;-66
2022/11/16 11:55:17;;;;;;;0.10;0.10;;;;;;;-0.63;53.77;99647.78;6147586;23;20021;-66
2022/11/16 11:57:47;;;;;;;0.10;0.10;;;;;;;0.02;52.59;99640.13;6181806;23;20059;-66
2022/11/16 12:00:16;;;;;;;0.10;0.10;;;;;;;-0.14;52.46;99644.91;6146996;23;20021;-65
2022/11/16 12:03:10;;;;;;;0.10;0.10;;;;;;;-0.48;53.03;99633.34;6122777;23;20392;-66
2022/11/16 12:05:55;;;;;;;0.10;0.10;;;;;;;-0.78;53.65;99622.97;6172037;23;20021;-66
2022/11/16 12:08:39;;;;;;;0.10;0.10;;;;;;;-0.89;54.24;99641.34;6173436;23;20390;-66
2022/11/16 12:11:14;;;;;;;0.17;0.17;;;;;;;-1.00;54.48;99631.22;6174400;23;20023;-66
2022/11/16 12:13:59;;;;;;;0.20;0.20;;;;;;;-1.06;54.73;99632.00;6183333;23;20139;-66
2022/11/16 12:16:36;;;;;;;0.10;0.10;;;;;;;-1.11;54.55;99626.44;6148849;23;20020;-66
2022/11/16 12:19:25;;;;;;;1.00;0.20;;;;;;;-1.21;54.61;99622.25;6157626;23;20028;-66
2022/11/16 12:22:06;;;;;;;0.10;0.10;;;;;;;-1.19;54.19;99632.81;6129080;23;20628;-66
2022/11/16 12:24:59;;;;;;;0.10;0.10;;;;;;;-1.22;54.39;99614.44;6185586;23;20068;-66
2022/11/16 12:27:36;;;;;;;0.30;0.30;;;;;;;-0.79;53.97;99621.34;6158382;23;20070;-65
2022/11/16 12:30:09;;;;;;;0.30;0.30;;;;;;;0.34;51.94;99614.22;6185189;23;20025;-66
2022/11/16 12:33:01;;;;;;;0.20;0.20;;;;;;;0.63;50.48;99617.41;6183166;23;20021;-66
2022/11/16 12:35:52;;;;;;;0.10;0.10;;;;;;;0.01;51.42;99606.22;6157272;23;20413;-66
2022/11/16 12:38:34;;;;;;;0.10;0.10;;;;;;;-0.42;52.28;99613.69;6140297;23;20061;-66
2022/11/16 12:41:15;;;;;;;0.13;0.13;;;;;;;-0.74;53.11;99613.47;6173580;23;20115;-66
2022/11/16 12:43:48;;;;;;;0.10;0.10;;;;;;;-1.02;53.88;99611.78;6173108;23;20111;-65